Phoenix, Arizona
Traffic Map
Current Weather Conditions
Phoenix, Arizona
Clear
Clear
80°
Feels Like: 80°
Wind Chill: 80° Ceiling: Unl
Heat Index: 80° Visibility: 10mi
Dew Point: 24° Wind: 9mph
Humidity: 13% Direction: 250° (WSW)
Pressure: 29.73in Gusts: 0mph
Raw Report DataKPHX 210451Z 25008KT 10SM CLR 27/M04 A2973 RMK AO2 SLP052 T02671044
Traffic Incident Summary
Active as of:
Severity:
Category:
InformationThere was an issue retrieving the traffic information for this location. Please try a different location or try again shortly.
Advertisements
Track Severe Weather on mobile